Torbert, Louisiana
Current Conditions -  °F | °C
As of 10:35 PM on Saturday 22 Nov 2014 (Local Time) from KHZR Reporting Station
Overcast Overcast  
Wind Chill: 64°   Ceiling: 1000
Heat Index: 64°   Visibility: 10mi
Dew Point: 60°   Wind: 13mph
Humidity: 89%   Direction: 90°E
Pressure: 29.88"   Gusts: 18mph
Location:  30.55°N, 91.49°W
Report Text: KHZR 230435Z AUTO 09011G16KT 10SM OVC010 18/16 A2988 RMK AO2 LTG DSNT SW T01750157
Loading
Personal Weather Stations






























Interactive Weather Map New forecast layout! Learn more

10-Day Weather Forecast

Advertisements
Track Severe Weather on mobile